KMMI

McMinn County Airport

Athens, Tennessee, USA
METAR KMMI 221715Z AUTO VRB03KT 10SM BKN035 27/19 A3012 RMK A01
Observed Flight Rules
May-22 @ 17:15 UTC (31 minutes ago) Visual Flight Rules
Wind Visibility Clouds
Variable at 3 knots 10 miles
  • Broken at 3,500' AGL
Temperatures Readings
Current 27°C / 81°F
Dewpoint 19°C / 66°F
Humidity 62%
Altimeter 30.12" Hg
Pressure 1020 hPa
Elevation 266
METAR KMMI 221715Z AUTO VRB03KT 10SM BKN035 27/19 A3012 RMK A01
Observed Flight Rules
May-22 @ 17:15 UTC
(31 minutes ago)
VFR
Wind Visibility
Variable at 3 knots 10 miles
Clouds
  • Broken at 3,500' AGL
Temperature Dewpoint
27°C / 81°F 19°C / 66°F
Humidity Altimeter Pressure
62% 30.12" Hg 1020 hPa